createdAt,value
2019-03-31T00:03:01.559Z,15.45
2019-03-31T00:08:07.354Z,18.02
2019-03-31T00:13:13.626Z,18.77
2019-03-31T00:18:19.550Z,17.32
2019-03-31T00:23:25.347Z,16.57
2019-03-31T00:28:31.133Z,17.98
2019-03-31T00:33:37.097Z,18.40
2019-03-31T00:38:43.357Z,15.43
2019-03-31T00:43:50.153Z,16.67
2019-03-31T00:48:55.978Z,17.50
2019-03-31T00:54:01.695Z,16.05
2019-03-31T00:59:08.041Z,15.08
2019-03-31T01:04:16.757Z,15.60
2019-03-31T01:09:26.563Z,14.95
2019-03-31T01:14:32.655Z,15.97
2019-03-31T01:19:38.692Z,16.77
2019-03-31T01:24:44.590Z,16.05
2019-03-31T01:29:50.486Z,14.65
2019-03-31T01:34:56.559Z,16.90
2019-03-31T01:40:02.478Z,14.90
2019-03-31T01:45:09.972Z,17.20
2019-03-31T01:50:17.921Z,16.93
2019-03-31T01:55:24.168Z,15.23
2019-03-31T02:00:50.491Z,16.60
2019-03-31T02:05:56.390Z,15.68
2019-03-31T02:11:03.016Z,15.23
2019-03-31T02:16:09.227Z,17.10
2019-03-31T02:21:15.222Z,13.88
2019-03-31T02:26:21.471Z,15.13
2019-03-31T02:31:28.189Z,15.17
2019-03-31T02:36:35.658Z,14.90
2019-03-31T02:41:41.568Z,14.43
2019-03-31T02:46:47.442Z,15.87
2019-03-31T02:51:53.086Z,16.65
2019-03-31T02:56:59.090Z,16.60
2019-03-31T03:02:05.381Z,17.50
2019-03-31T03:07:12.999Z,16.30
2019-03-31T03:12:21.758Z,15.33
2019-03-31T03:17:27.964Z,17.07
2019-03-31T03:22:34.066Z,15.95
2019-03-31T03:27:40.322Z,17.23
2019-03-31T03:33:12.662Z,17.90
2019-03-31T03:37:55.575Z,16.10
2019-03-31T03:43:01.904Z,16.60
2019-03-31T03:48:07.699Z,16.80
2019-03-31T03:53:13.477Z,18.62
2019-03-31T03:58:20.069Z,18.07
2019-03-31T04:03:30.436Z,17.07
2019-03-31T04:08:35.936Z,18.30
2019-03-31T04:13:42.014Z,16.03
2019-03-31T04:18:48.283Z,16.55
2019-03-31T04:23:54.391Z,17.80
2019-03-31T04:29:00.487Z,17.93
2019-03-31T04:34:06.917Z,16.95
2019-03-31T04:39:12.597Z,18.53
2019-03-31T04:44:18.388Z,20.75
2019-03-31T04:49:24.195Z,17.37
2019-03-31T04:54:29.984Z,16.40
2019-03-31T04:59:35.814Z,17.30
2019-03-31T05:04:41.888Z,16.37
2019-03-31T05:09:47.583Z,15.37
2019-03-31T05:14:53.769Z,18.63
2019-03-31T05:20:00.861Z,18.90
2019-03-31T05:25:07.020Z,17.97
2019-03-31T05:30:13.225Z,18.73
2019-03-31T05:35:19.733Z,16.77
2019-03-31T05:40:25.420Z,17.67
2019-03-31T05:45:31.120Z,18.27
2019-03-31T05:50:36.814Z,18.17
2019-03-31T05:55:42.949Z,25.03
2019-03-31T06:00:52.211Z,21.50
2019-03-31T06:05:58.170Z,21.87
2019-03-31T06:11:03.966Z,21.60
2019-03-31T06:16:09.754Z,19.77
2019-03-31T06:21:15.484Z,21.53
2019-03-31T06:26:21.582Z,21.27
2019-03-31T06:31:27.638Z,22.33
2019-03-31T06:36:35.429Z,24.00
2019-03-31T06:41:42.471Z,23.10
2019-03-31T06:46:48.166Z,21.80
2019-03-31T06:51:53.850Z,21.83
2019-03-31T06:56:59.761Z,20.30
2019-03-31T07:02:05.658Z,20.73
2019-03-31T07:07:11.376Z,19.70
2019-03-31T07:12:17.578Z,21.10
2019-03-31T07:17:23.295Z,23.10
2019-03-31T07:22:28.977Z,22.40
2019-03-31T07:27:35.183Z,23.47
2019-03-31T07:32:41.307Z,29.57
2019-03-31T07:37:48.047Z,50.28
2019-03-31T07:42:54.210Z,53.38
2019-03-31T07:47:59.955Z,59.58
2019-03-31T07:53:06.052Z,52.88
2019-03-31T07:58:11.829Z,49.73
2019-03-31T08:03:18.196Z,53.63
2019-03-31T08:08:24.335Z,55.63
2019-03-31T08:13:30.160Z,54.75
2019-03-31T08:18:36.358Z,54.08
2019-03-31T08:23:43.176Z,47.93
2019-03-31T08:28:48.969Z,48.65
2019-03-31T08:33:55.272Z,52.13
2019-03-31T08:39:01.347Z,46.65
2019-03-31T08:44:09.311Z,45.23
2019-03-31T08:49:15.214Z,46.13
2019-03-31T08:54:21.127Z,44.98
2019-03-31T08:59:27.847Z,49.58
2019-03-31T09:04:33.548Z,46.85
2019-03-31T09:09:39.661Z,46.20
2019-03-31T09:14:45.493Z,47.73
2019-03-31T09:19:51.676Z,54.73
2019-03-31T09:24:57.451Z,50.17
2019-03-31T09:30:03.235Z,52.65
2019-03-31T09:35:10.136Z,50.83
2019-03-31T09:40:16.247Z,45.80
2019-03-31T09:45:22.525Z,46.15
2019-03-31T09:50:28.317Z,44.83
2019-03-31T09:55:34.663Z,49.50
2019-03-31T10:00:50.709Z,46.25
2019-03-31T10:06:09.920Z,50.23
2019-03-31T10:11:05.493Z,50.67
2019-03-31T10:16:11.663Z,50.38
2019-03-31T10:21:17.501Z,58.30
2019-03-31T10:26:31.865Z,47.23
2019-03-31T10:31:31.199Z,51.83
2019-03-31T10:36:44.412Z,51.05
2019-03-31T10:41:44.872Z,51.95
2019-03-31T10:46:50.973Z,52.27
2019-03-31T10:51:56.791Z,44.60
2019-03-31T10:57:03.044Z,44.20
2019-03-31T11:02:09.222Z,46.85
2019-03-31T11:07:15.322Z,49.08
2019-03-31T11:12:21.112Z,49.25
2019-03-31T11:17:26.904Z,51.35
2019-03-31T11:22:55.666Z,42.20
2019-03-31T11:28:01.555Z,40.10
2019-03-31T11:33:07.942Z,42.27
2019-03-31T11:38:14.232Z,44.05
2019-03-31T11:43:20.113Z,41.98
2019-03-31T11:48:25.887Z,41.55
2019-03-31T11:53:32.201Z,40.33
2019-03-31T11:58:40.977Z,34.15
2019-03-31T12:03:46.845Z,39.92
2019-03-31T12:08:52.681Z,38.15
2019-03-31T12:13:59.664Z,41.50
2019-03-31T12:19:05.835Z,43.25
2019-03-31T12:24:11.802Z,43.95
2019-03-31T12:29:17.991Z,43.90
2019-03-31T12:34:25.620Z,43.92
2019-03-31T12:39:31.655Z,42.17
2019-03-31T12:44:37.553Z,42.70
2019-03-31T12:49:43.440Z,48.58
2019-03-31T12:54:49.231Z,44.48
2019-03-31T12:59:55.698Z,48.15
2019-03-31T13:05:01.620Z,44.83
2019-03-31T13:10:07.739Z,47.40
2019-03-31T13:15:14.154Z,55.67
2019-03-31T13:20:19.955Z,53.23
2019-03-31T13:25:26.827Z,54.10
2019-03-31T13:30:32.618Z,52.62
2019-03-31T13:35:38.540Z,50.63
2019-03-31T13:40:45.168Z,46.85
2019-03-31T13:45:50.959Z,49.50
2019-03-31T13:50:56.840Z,50.80
2019-03-31T13:56:03.207Z,50.45
2019-03-31T14:01:11.810Z,45.63
2019-03-31T14:06:18.113Z,46.58
2019-03-31T14:11:25.076Z,41.20
2019-03-31T14:16:30.896Z,45.40
2019-03-31T14:21:40.109Z,33.48
2019-03-31T14:26:47.696Z,33.20
2019-03-31T14:31:53.629Z,35.05
2019-03-31T14:36:59.893Z,38.98
2019-03-31T14:42:05.777Z,34.60
2019-03-31T14:47:12.046Z,36.25
2019-03-31T14:52:27.219Z,34.27
2019-03-31T14:57:25.752Z,31.10
2019-03-31T15:02:31.518Z,28.83
2019-03-31T15:07:37.277Z,29.67
2019-03-31T15:12:44.333Z,29.18
2019-03-31T15:17:50.981Z,27.67
2019-03-31T15:22:57.124Z,26.65
2019-03-31T15:28:03.742Z,26.55
2019-03-31T15:33:09.869Z,23.47
2019-03-31T15:38:16.113Z,24.12
2019-03-31T15:43:22.029Z,28.27
2019-03-31T15:48:27.870Z,21.68
2019-03-31T15:53:34.390Z,20.55
2019-03-31T15:58:40.199Z,21.17
2019-03-31T16:03:45.975Z,21.85
2019-03-31T16:08:51.218Z,18.20
2019-03-31T16:13:56.532Z,19.52
2019-03-31T16:19:03.973Z,18.73
2019-03-31T16:24:09.357Z,22.22
2019-03-31T16:29:14.967Z,20.75
2019-03-31T16:34:20.619Z,18.77
2019-03-31T16:39:36.886Z,21.47
2019-03-31T16:44:33.366Z,19.50
2019-03-31T16:49:38.913Z,17.80
2019-03-31T16:54:44.223Z,17.20
2019-03-31T16:59:50.184Z,15.80
2019-03-31T17:04:55.444Z,14.68
2019-03-31T17:10:01.227Z,17.73
2019-03-31T17:15:08.032Z,15.95
2019-03-31T17:20:13.492Z,15.63
2019-03-31T17:25:18.731Z,14.03
2019-03-31T17:30:24.331Z,14.63
2019-03-31T17:35:29.569Z,13.05
2019-03-31T17:40:35.181Z,14.33
2019-03-31T17:45:40.718Z,12.80
2019-03-31T17:50:47.520Z,15.13
2019-03-31T17:55:53.047Z,14.50
2019-03-31T18:00:58.286Z,13.85
2019-03-31T18:06:03.531Z,14.18
2019-03-31T18:11:08.766Z,11.95
2019-03-31T18:16:14.408Z,14.75
2019-03-31T18:21:19.665Z,13.08
2019-03-31T18:26:25.989Z,13.00
2019-03-31T18:31:31.229Z,11.15
2019-03-31T18:36:37.339Z,11.18
2019-03-31T18:41:43.008Z,13.30
2019-03-31T18:46:48.179Z,14.53
2019-03-31T18:51:53.464Z,14.07
2019-03-31T18:57:10.950Z,16.07
2019-03-31T19:02:45.624Z,16.00
2019-03-31T19:08:18.884Z,14.37
2019-03-31T19:13:37.540Z,18.00
2019-03-31T19:18:58.474Z,16.00
2019-03-31T19:24:18.473Z,17.77
2019-03-31T19:29:45.421Z,16.67
2019-03-31T19:35:09.716Z,18.33
2019-03-31T19:40:26.666Z,16.20
2019-03-31T19:45:50.940Z,15.37
2019-03-31T19:51:21.604Z,17.47
2019-03-31T19:56:47.499Z,25.77
2019-03-31T20:02:13.010Z,24.00
2019-03-31T20:07:46.485Z,27.70
2019-03-31T20:13:11.121Z,28.38
2019-03-31T20:18:41.979Z,26.05
2019-03-31T20:24:09.281Z,17.65
2019-03-31T20:29:39.328Z,16.50
2019-03-31T20:35:05.428Z,14.23
2019-03-31T20:40:17.644Z,14.50
2019-03-31T20:45:22.814Z,12.13
2019-03-31T20:50:28.063Z,11.70
2019-03-31T20:55:33.681Z,10.82
2019-03-31T21:00:39.740Z,11.37
2019-03-31T21:05:45.336Z,13.70
2019-03-31T21:10:50.871Z,13.80
2019-03-31T21:15:57.493Z,13.47
2019-03-31T21:21:02.686Z,10.90
2019-03-31T21:26:07.861Z,16.00
2019-03-31T21:31:13.035Z,12.60
2019-03-31T21:36:18.304Z,15.18
2019-03-31T21:41:23.725Z,10.80
2019-03-31T21:46:29.932Z,12.07
2019-03-31T21:51:36.575Z,9.93
2019-03-31T21:56:41.736Z,12.37
2019-03-31T22:01:46.885Z,12.20
2019-03-31T22:06:52.037Z,10.70
2019-03-31T22:11:57.462Z,10.93
2019-03-31T22:17:02.733Z,12.83
2019-03-31T22:22:09.577Z,8.98
2019-03-31T22:27:14.797Z,9.80
2019-03-31T22:32:20.485Z,10.83
2019-03-31T22:37:26.127Z,6.97
2019-03-31T22:42:31.914Z,9.33
2019-03-31T22:47:37.806Z,7.97
2019-03-31T22:52:43.670Z,9.10
2019-03-31T22:57:49.375Z,7.00
2019-03-31T23:02:54.531Z,7.60
2019-03-31T23:07:59.613Z,7.73
2019-03-31T23:13:04.765Z,7.90
2019-03-31T23:18:10.214Z,4.70
2019-03-31T23:23:16.510Z,5.73
2019-03-31T23:28:21.688Z,9.63
2019-03-31T23:33:28.047Z,5.43
2019-03-31T23:38:33.513Z,6.23
2019-03-31T23:43:38.663Z,6.97
2019-03-31T23:48:44.074Z,5.40
2019-03-31T23:53:49.217Z,5.30
2019-03-31T23:58:54.501Z,6.77
